Akvile — LYJM — position and weather

sailwx.info

Track history (hours):
 
Tides and Currents Weather Stations Pressure Air Temp Water Temp Dewpoint Dewpoint Depression Visibility Wind Speed Wind Dir Waves Ship Positions

Akvile

Last reported at 2014-Oct-20 13:13 UTC. Time now 2014-Oct-25 23:02 UTC.
Position N 37°24' E 023°59'.

Length 103 m; draft 6.8 m.

Type: Ship (hazmat cat A). MMSI: 277073000.

Date/timePositionNaut miles runAvg speedWind from/ knotsBaromVisibWave heightAir tempDewpointWater temp
2014-Oct-20 13:13N 37°24' E 023°59'16 2.8
2014-Oct-20 07:18N 37°40' E 024°05'404 9.2
2014-Oct-18 11:12N 38°04' E 015°34'1113.3
2014-Oct-18 10:23N 38°14' E 015°36'13711.6
2014-Oct-17 22:33N 39°58' E 013°41'24511.5
2014-Oct-17 01:18N 42°52' E 009°50'3110.4
2014-Oct-16 22:20N 43°22' E 009°43'810.3
2014-Oct-16 21:33N 43°30' E 009°45'1010.2
2014-Oct-16 20:33N 43°40' E 009°46'1010.5
2014-Oct-16 19:33N 43°50' E 009°49'1110.7
2014-Oct-16 18:34N 44°01' E 009°52'6 5.5
2014-Oct-16 17:31N 44°06' E 009°50'0 0.0
2014-Oct-16 16:34N 44°06' E 009°50'0 0.0
2014-Oct-16 15:31N 44°06' E 009°50'0 0.0
2014-Oct-16 14:31N 44°06' E 009°50'0 0.0
2014-Oct-16 13:31N 44°06' E 009°50'0 0.0
2014-Oct-16 12:34N 44°06' E 009°50'0 0.0
2014-Oct-16 11:31N 44°06' E 009°50'0 0.0
2014-Oct-16 10:31N 44°06' E 009°50'0 0.0
2014-Oct-16 09:34N 44°06' E 009°50'0 0.0
2014-Oct-16 08:31N 44°06' E 009°50'0 0.0
2014-Oct-16 07:31N 44°06' E 009°50'0 0.0
2014-Oct-16 06:34N 44°06' E 009°50'0 0.0
2014-Oct-16 05:31N 44°06' E 009°50'0 0.0
2014-Oct-16 04:31N 44°06' E 009°50'0 0.0
2014-Oct-16 03:31N 44°06' E 009°50'0 0.0
2014-Oct-16 02:34N 44°06' E 009°50'0 0.0
2014-Oct-16 01:34N 44°06' E 009°50'0 0.0
2014-Oct-16 00:31N 44°06' E 009°50'0 0.0
2014-Oct-15 23:31N 44°06' E 009°50'0 0.0
2014-Oct-15 22:31N 44°06' E 009°50'0 0.0
2014-Oct-15 21:31N 44°06' E 009°50'0 0.0
2014-Oct-15 20:34N 44°06' E 009°50'0 0.0
2014-Oct-15 19:31N 44°06' E 009°50'0 0.0
2014-Oct-15 18:34N 44°06' E 009°50'0 0.0
2014-Oct-15 17:34N 44°06' E 009°50'0 0.0
2014-Oct-15 16:31N 44°06' E 009°50'0 0.2
2014-Oct-15 15:31N 44°07' E 009°50'0 0.0
2014-Oct-15 14:31N 44°07' E 009°50'0 0.0
2014-Oct-15 13:34N 44°07' E 009°50'0 0.0
2014-Oct-15 12:34N 44°07' E 009°50'0 0.0
2014-Oct-15 11:34N 44°07' E 009°50'0 0.0
2014-Oct-15 10:34N 44°07' E 009°50'0 0.0
2014-Oct-15 09:31N 44°07' E 009°50'0 0.0
2014-Oct-15 08:34N 44°07' E 009°50'0 0.0
2014-Oct-15 07:31N 44°07' E 009°50'0 0.0
2014-Oct-15 06:31N 44°07' E 009°50'0 0.0
2014-Oct-15 05:31N 44°07' E 009°50'0 0.0
2014-Oct-15 04:31N 44°07' E 009°50'0 0.0
2014-Oct-15 03:31N 44°07' E 009°50'0 0.0
2014-Oct-15 02:34N 44°07' E 009°50'0 0.0
2014-Oct-15 01:34N 44°07' E 009°50'0 0.0
2014-Oct-15 00:34N 44°07' E 009°50'0 0.0
2014-Oct-14 23:31N 44°07' E 009°50'0 0.0
2014-Oct-14 22:28N 44°07' E 009°50'0 0.0
2014-Oct-14 21:34N 44°07' E 009°50'0 0.0
2014-Oct-14 20:31N 44°07' E 009°50'0 0.0
2014-Oct-14 19:31N 44°07' E 009°50'0 0.0
2014-Oct-14 18:34N 44°07' E 009°50'0 0.0
2014-Oct-14 17:34N 44°07' E 009°50'0 0.0
2014-Oct-14 16:31N 44°07' E 009°50'1 0.8
2014-Oct-14 15:31N 44°06' E 009°51'0 0.0
2014-Oct-14 14:31N 44°06' E 009°51'0 0.0
2014-Oct-14 13:31N 44°06' E 009°51'0 0.0
2014-Oct-14 12:31N 44°06' E 009°51'0 0.0
2014-Oct-14 11:31N 44°06' E 009°51'0 0.0
2014-Oct-14 10:31N 44°06' E 009°51'0 0.0
2014-Oct-14 09:31N 44°06' E 009°51'0 0.0
2014-Oct-14 08:31N 44°06' E 009°51'0 0.0
2014-Oct-14 07:31N 44°06' E 009°51'0 0.0
2014-Oct-14 06:32N 44°06' E 009°51'3 3.3
2014-Oct-14 05:33N 44°03' E 009°53'7 6.8
2014-Oct-14 04:33N 43°56' E 009°53'8 8.4
2014-Oct-14 03:33N 43°48' E 009°50'9 9.3
2014-Oct-14 02:33N 43°39' E 009°48'1111.1
2014-Oct-14 01:33N 43°28' E 009°45'1211.5
2014-Oct-14 00:33N 43°17' E 009°42'1111.0
2014-Oct-13 23:33N 43°06' E 009°39'3510.9
2014-Oct-13 20:20N 42°32' E 009°48'910.7
2014-Oct-13 19:32N 42°23' E 009°51'27811.9
2014-Oct-12 20:14N 37°52' E 011°14'912.5
2014-Oct-12 19:30N 37°43' E 011°16'1312.6
2014-Oct-12 18:28N 37°31' E 011°20'5212.5
2014-Oct-12 14:19N 36°40' E 011°30'1112.3
2014-Oct-12 13:25N 36°29' E 011°32'1112.5
2014-Oct-12 12:32N 36°18' E 011°34'2512.4
2014-Oct-12 10:29N 35°53' E 011°39'1612.7
2014-Oct-12 09:15N 35°37' E 011°42'912.5
2014-Oct-12 08:33N 35°29' E 011°44'1312.6
2014-Oct-12 07:33N 35°16' E 011°46'1312.9
2014-Oct-12 06:33N 35°03' E 011°48'1312.8
2014-Oct-12 05:33N 34°51' E 011°50'1212.2
2014-Oct-12 04:33N 34°42' E 011°40'2411.9
2014-Oct-12 02:33N 34°33' E 011°12'  
Track history (hours):
 
Tides and Currents Weather Stations Pressure Air Temp Water Temp Dewpoint Dewpoint Depression Visibility Wind Speed Wind Dir Waves Ship Positions

Akvile

Last reported at 2014-Oct-20 13:13 UTC. Time now 2014-Oct-25 23:02 UTC.
Position N 37°24' E 023°59'.

Length 103 m; draft 6.8 m.

Type: Ship (hazmat cat A). MMSI: 277073000.

Date/timePositionNaut miles runAvg speedWind from/ knotsBaromVisibWave heightAir tempDewpointWater temp
2014-Oct-20 13:13N 37°24' E 023°59'16 2.8
2014-Oct-20 07:18N 37°40' E 024°05'404 9.2
2014-Oct-18 11:12N 38°04' E 015°34'1113.3
2014-Oct-18 10:23N 38°14' E 015°36'13711.6
2014-Oct-17 22:33N 39°58' E 013°41'24511.5
2014-Oct-17 01:18N 42°52' E 009°50'3110.4
2014-Oct-16 22:20N 43°22' E 009°43'810.3
2014-Oct-16 21:33N 43°30' E 009°45'1010.2
2014-Oct-16 20:33N 43°40' E 009°46'1010.5
2014-Oct-16 19:33N 43°50' E 009°49'1110.7
2014-Oct-16 18:34N 44°01' E 009°52'6 5.5
2014-Oct-16 17:31N 44°06' E 009°50'0 0.0
2014-Oct-16 16:34N 44°06' E 009°50'0 0.0
2014-Oct-16 15:31N 44°06' E 009°50'0 0.0
2014-Oct-16 14:31N 44°06' E 009°50'0 0.0
2014-Oct-16 13:31N 44°06' E 009°50'0 0.0
2014-Oct-16 12:34N 44°06' E 009°50'0 0.0
2014-Oct-16 11:31N 44°06' E 009°50'0 0.0
2014-Oct-16 10:31N 44°06' E 009°50'0 0.0
2014-Oct-16 09:34N 44°06' E 009°50'0 0.0
2014-Oct-16 08:31N 44°06' E 009°50'0 0.0
2014-Oct-16 07:31N 44°06' E 009°50'0 0.0
2014-Oct-16 06:34N 44°06' E 009°50'0 0.0
2014-Oct-16 05:31N 44°06' E 009°50'0 0.0
2014-Oct-16 04:31N 44°06' E 009°50'0 0.0
2014-Oct-16 03:31N 44°06' E 009°50'0 0.0
2014-Oct-16 02:34N 44°06' E 009°50'0 0.0
2014-Oct-16 01:34N 44°06' E 009°50'0 0.0
2014-Oct-16 00:31N 44°06' E 009°50'0 0.0
2014-Oct-15 23:31N 44°06' E 009°50'0 0.0
2014-Oct-15 22:31N 44°06' E 009°50'0 0.0
2014-Oct-15 21:31N 44°06' E 009°50'0 0.0
2014-Oct-15 20:34N 44°06' E 009°50'0 0.0
2014-Oct-15 19:31N 44°06' E 009°50'0 0.0
2014-Oct-15 18:34N 44°06' E 009°50'0 0.0
2014-Oct-15 17:34N 44°06' E 009°50'0 0.0
2014-Oct-15 16:31N 44°06' E 009°50'0 0.2
2014-Oct-15 15:31N 44°07' E 009°50'0 0.0
2014-Oct-15 14:31N 44°07' E 009°50'0 0.0
2014-Oct-15 13:34N 44°07' E 009°50'0 0.0
2014-Oct-15 12:34N 44°07' E 009°50'0 0.0
2014-Oct-15 11:34N 44°07' E 009°50'0 0.0
2014-Oct-15 10:34N 44°07' E 009°50'0 0.0
2014-Oct-15 09:31N 44°07' E 009°50'0 0.0
2014-Oct-15 08:34N 44°07' E 009°50'0 0.0
2014-Oct-15 07:31N 44°07' E 009°50'0 0.0
2014-Oct-15 06:31N 44°07' E 009°50'0 0.0
2014-Oct-15 05:31N 44°07' E 009°50'0 0.0
2014-Oct-15 04:31N 44°07' E 009°50'0 0.0
2014-Oct-15 03:31N 44°07' E 009°50'0 0.0
2014-Oct-15 02:34N 44°07' E 009°50'0 0.0
2014-Oct-15 01:34N 44°07' E 009°50'0 0.0
2014-Oct-15 00:34N 44°07' E 009°50'0 0.0
2014-Oct-14 23:31N 44°07' E 009°50'0 0.0
2014-Oct-14 22:28N 44°07' E 009°50'0 0.0
2014-Oct-14 21:34N 44°07' E 009°50'0 0.0
2014-Oct-14 20:31N 44°07' E 009°50'0 0.0
2014-Oct-14 19:31N 44°07' E 009°50'0 0.0
2014-Oct-14 18:34N 44°07' E 009°50'0 0.0
2014-Oct-14 17:34N 44°07' E 009°50'0 0.0
2014-Oct-14 16:31N 44°07' E 009°50'1 0.8
2014-Oct-14 15:31N 44°06' E 009°51'0 0.0
2014-Oct-14 14:31N 44°06' E 009°51'0 0.0
2014-Oct-14 13:31N 44°06' E 009°51'0 0.0
2014-Oct-14 12:31N 44°06' E 009°51'0 0.0
2014-Oct-14 11:31N 44°06' E 009°51'0 0.0
2014-Oct-14 10:31N 44°06' E 009°51'0 0.0
2014-Oct-14 09:31N 44°06' E 009°51'0 0.0
2014-Oct-14 08:31N 44°06' E 009°51'0 0.0
2014-Oct-14 07:31N 44°06' E 009°51'0 0.0
2014-Oct-14 06:32N 44°06' E 009°51'3 3.3
2014-Oct-14 05:33N 44°03' E 009°53'7 6.8
2014-Oct-14 04:33N 43°56' E 009°53'8 8.4
2014-Oct-14 03:33N 43°48' E 009°50'9 9.3
2014-Oct-14 02:33N 43°39' E 009°48'1111.1
2014-Oct-14 01:33N 43°28' E 009°45'1211.5
2014-Oct-14 00:33N 43°17' E 009°42'1111.0
2014-Oct-13 23:33N 43°06' E 009°39'3510.9
2014-Oct-13 20:20N 42°32' E 009°48'910.7
2014-Oct-13 19:32N 42°23' E 009°51'27811.9
2014-Oct-12 20:14N 37°52' E 011°14'912.5
2014-Oct-12 19:30N 37°43' E 011°16'1312.6
2014-Oct-12 18:28N 37°31' E 011°20'5212.5
2014-Oct-12 14:19N 36°40' E 011°30'1112.3
2014-Oct-12 13:25N 36°29' E 011°32'1112.5
2014-Oct-12 12:32N 36°18' E 011°34'2512.4
2014-Oct-12 10:29N 35°53' E 011°39'1612.7
2014-Oct-12 09:15N 35°37' E 011°42'912.5
2014-Oct-12 08:33N 35°29' E 011°44'1312.6
2014-Oct-12 07:33N 35°16' E 011°46'1312.9
2014-Oct-12 06:33N 35°03' E 011°48'1312.8
2014-Oct-12 05:33N 34°51' E 011°50'1212.2
2014-Oct-12 04:33N 34°42' E 011°40'2411.9
2014-Oct-12 02:33N 34°33' E 011°12'  

Dump ship's entire track history